Atherton, California
Current Conditions -  °F | °C
As of 8:47 PM on Friday 31 Oct 2014 (Local Time) from KPAO Reporting Station
Broken Clouds Broken Clouds  
Wind Chill: 57°   Ceiling: 10000
Heat Index: 57°   Visibility: 10mi
Dew Point: 55°   Wind: 6mph
Humidity: 94%   Direction: NA
Pressure: 29.78"   Gusts: NA
Location:  37.46°N, 122.19°W
Report Text: KPAO 010347Z VRB05KT 10SM SCT030 BKN100 14/13 A2978 RMK LAST
Loading
Personal Weather Stations






























Interactive Weather Map
Tropical Storm Tracking
New forecast layout! Learn more

10-Day Weather Forecast

Advertisements
Track Severe Weather on mobile